Weather observations for the past three days for
Fremont Municipal Airport
Imperial (Metric)
Date Time (cdt) Wind (mph) Vis. (mi.) Weather Sky Cond. Temperature (ºF) Relative Humidity Wind Chill (°F) Heat Index (°F) Pressure Precipitation (in)
Air Dwpt 6 hour altimeter (in) sea level (mb) 1 hr 3 hr 6 hr
Max. Min.
31 04:55 Calm 10.00 Fair CLR 69.1 66.7 92% 29.85 0.0
31 04:35 Calm 10.00 Fair CLR 71.6 68.9 91% 29.85 0.0
31 04:15 SE 3 10.00 Fair CLR 69.3 66.9 92% 29.84 0.0
31 03:55 Calm 10.00 Fair CLR 70.7 68.2 92% 29.82 0.0
31 03:35 Calm 10.00 Fair CLR 68 66.4 95% 29.82 0.0
31 03:15 N 3 10.00 Fair CLR 70.3 67.5 91% 29.82 0.0
31 02:55 Calm 10.00 Fair CLR 70.2 68.2 93% 29.82 0.0
31 02:35 NW 6 10.00 Fair CLR 72.3 68.9 89% 29.82 0.0
31 02:15 Calm 10.00 Fair CLR 72.1 69.4 91% 29.82 0.0
31 01:55 Calm 10.00 Fair CLR 72.1 70.3 94% 29.82 0.0
31 01:35 Calm 10.00 Fair CLR 71.8 69.4 92% 29.82 0.0
31 01:15 Calm 10.00 Fair CLR 73.4 70 89% 29.82 0.0
31 00:55 Calm 10.00 Fair CLR 73.2 70 86.9 73.2 90% 29.82 0.0
31 00:35 Calm 10.00 Fair CLR 74.7 70.7 88% 29.82 0.0
31 00:15 Calm 10.00 Fair CLR 75 71.1 88% 75 29.82 0.0
30 23:55 S 3 10.00 Fair CLR 75.9 71.2 85% 76 29.81 0.0
30 23:35 Calm 10.00 Fair CLR 74.3 71.6 91% 29.81 0.0
30 23:15 Calm 10.00 Fair CLR 76.1 72.1 88% 76 29.82 0.0
30 22:55 Calm 10.00 Fair CLR 76.1 72.9 90% 76 29.82 0.0
30 22:35 Calm 10.00 Fair CLR 77.2 72.7 86% 79 29.82 0.0
30 22:15 Calm 10.00 Fair CLR 77 73 88% 78 29.82 0.0
30 21:55 Calm 10.00 Fair CLR 76.5 72 86% 77 29.82 0.0
30 21:35 Calm 10.00 Fair CLR 78.3 72 81% 81 29.82 0.0
30 21:15 Calm 10.00 Fair CLR 76.1 70.9 84% 77 29.82 0.0
30 20:55 Calm 10.00 Fair CLR 79.3 72 78% 83 29.81 0.0
30 20:35 Calm 10.00 Fair CLR 79.7 72 77% 83 29.8 0.0
30 20:15 Calm 10.00 Fair CLR 81.9 71.6 71% 86 29.8 0.0
30 19:55 Calm 10.00 Fair CLR 84.2 71.1 65% 89 29.8 0.0
30 19:35 Calm 10.00 Fair CLR 85.6 70.3 60% 91 29.8 0.0
30 19:15 Calm 10.00 Fair CLR 86.9 69.6 57% 92 29.8 0.0
30 18:55 S 5 10.00 Fair CLR 87.1 69.4 89.6 86.5 56% 92 29.8 0.0
30 18:35 SW 5 10.00 Fair CLR 88.3 68.5 52% 92 29.8 0.0
30 18:15 S 7 10.00 Fair CLR 89.1 68.5 51% 93 29.8 0.0
30 17:55 S 7 10.00 Fair CLR 89.4 68.4 50% 93 29.79 0.0
30 17:35 S 8 10.00 Fair CLR 89.2 68.9 51% 94 29.79 0.0
30 17:15 S 10 10.00 Fair CLR 89.1 68 50% 93 29.79 0.0
30 16:55 S 7 10.00 Fair CLR 88.5 68.5 52% 93 29.79 0.0
30 16:35 SW 8 10.00 Fair CLR 87.3 68.2 53% 91 29.79 0.0
30 16:15 SW 10 10.00 Fair CLR 87.3 67.3 52% 90 29.79 0.0
30 15:55 S 12 G 18 10.00 Fair CLR 87.4 66.7 50% 90 29.79 0.0
30 15:35 S 9 G 16 10.00 Fair CLR 89.1 68.7 51% 93 29.8 0.0
30 15:15 S 10 10.00 Fair CLR 88.3 67.8 51% 92 29.8 0.0
30 14:55 S 8 10.00 Fair CLR 87.4 67.8 52% 91 29.8 0.0
30 14:35 S 9 10.00 Fair CLR 88.7 68 50% 92 29.8 0.0
30 14:15 S 12 G 16 10.00 Fair CLR 88 67.3 50% 91 29.81 0.0
30 13:55 S 7 10.00 Fair CLR 87.4 68.4 53% 91 29.8 0.0
30 13:35 SW 3 10.00 Fair CLR 87.8 67.3 51% 91 29.8 0.0
30 13:15 SW 7 10.00 Fair CLR 87.8 67.3 51% 91 29.8 0.0
30 12:55 SW 7 10.00 Fair CLR 86.4 67.1 87.1 73.8 53% 89 29.82 0.0
30 12:35 SW 9 10.00 Fair CLR 85.8 67.1 54% 89 29.82 0.0
30 12:15 SW 8 10.00 Fair CLR 86.2 66.6 52% 89 29.82 0.0
30 11:55 SW 9 10.00 Fair CLR 85.3 66.7 54% 88 29.82 0.0
30 11:35 SW 5 10.00 Fair CLR 83.5 67.1 58% 86 29.82 0.0
30 11:18 S 7 10.00 Fair CLR 82.4 66.2 58% 85 29.82 0.0
30 10:58 S 6 10.00 Fair CLR 82.4 66.2 58% 85 29.82 0.0
30 10:35 S 8 10.00 Fair CLR 81.5 64.6 57% 83 29.81 0.0
30 10:15 SE 8 10.00 Fair CLR 80.1 64.6 59% 82 29.81 0.0
30 09:55 S 9 10.00 Thunderstorm in Vicinity CLR 79.3 63.9 59% 81 29.81 0.0
30 09:35 SE 7 10.00 Fair CLR 79 63.7 60% 81 29.81 0.0
30 09:15 SE 5 10.00 Fair CLR 78.3 63.9 61% 80 29.81 0.0
30 08:55 SE 3 10.00 Fair CLR 76.6 63.9 65% 78 29.81 0.0
30 08:35 SE 8 10.00 Fair CLR 75.4 63.5 67% 77 29.81 0.0
30 08:15 SE 7 10.00 Thunderstorm in Vicinity CLR 74.7 63.7 69% 29.81 0.0
30 07:55 SE 8 10.00 Thunderstorm in Vicinity CLR 75.2 63.3 67% 77 29.8 0.0
30 07:35 SE 6 10.00 Thunderstorm in Vicinity CLR 73.8 63.9 71% 29.8 0.0
30 07:15 E 3 10.00 Thunderstorm CLR 74.8 63.5 68% 29.81 0.0
30 06:55 Calm 10.00 Thunderstorm in Vicinity CLR 75.6 63 81.5 75.6 65% 77 29.8 0.0
30 06:35 S 6 10.00 Thunderstorm in Vicinity CLR 76.1 62.8 63% 78 29.8 0.0
30 06:15 SE 9 10.00 Fair CLR 77 62.6 61% 79 29.78 0.0
30 05:55 S 3 10.00 Fair CLR 77 62.6 61% 79 29.8 0.0
30 05:35 S 7 10.00 Fair CLR 77 62.6 61% 79 29.81 0.0
30 05:15 SW 8 10.00 Partly Cloudy SCT120 77.4 62.6 61% 79 29.84 0.0
30 04:55 SW 7 10.00 Thunderstorm in Vicinity SCT120 77.5 62.6 60% 79 29.82 0.0
30 04:35 S 6 10.00 Fair CLR 76.5 63 63% 78 29.82 0.0
30 04:15 SW 6 10.00 Partly Cloudy SCT110 77.7 62.6 60% 79 29.84 0.0
30 03:55 S 10 G 18 10.00 Partly Cloudy SCT110 79 61.9 56% 80 29.82 0.0
30 03:35 S 13 G 21 10.00 Fair CLR 79.3 61.9 55% 81 29.8 0.0
30 03:15 S 13 10.00 Fair CLR 79.7 62.1 55% 81 29.8 0.0
30 02:55 S 12 G 18 10.00 Fair CLR 79.9 62.1 55% 81 29.8 0.0
30 02:35 S 9 10.00 Fair CLR 79.7 62.6 56% 81 29.8 0.0
30 02:15 S 10 10.00 Fair CLR 79.9 63 56% 81 29.8 0.0
30 01:55 S 12 10.00 Fair CLR 80.1 63.5 57% 82 29.8 0.0
30 01:35 S 9 G 17 10.00 Fair CLR 81 63.5 55% 82 29.8 0.0
30 01:15 S 12 G 18 10.00 Fair CLR 81.1 63.7 55% 83 29.81 0.0
30 00:55 S 10 G 17 10.00 Fair CLR 81.1 64.4 86.5 80.8 57% 83 29.8 0.0
30 00:35 S 9 10.00 Fair CLR 81.5 64.8 57% 83 29.8 0.0
30 00:15 S 9 10.00 Fair CLR 81.1 65.7 59% 83 29.8 0.0
29 23:55 S 8 10.00 Fair CLR 81 66.6 62% 83 29.8 0.0
29 23:35 S 7 10.00 Fair CLR 81 67.3 63% 83 29.8 0.0
29 23:15 S 6 10.00 Fair CLR 81.5 68 64% 84 29.81 0.0
29 22:55 S 9 10.00 Fair CLR 81.9 68.4 64% 85 29.81 0.0
29 22:35 S 8 10.00 Fair CLR 82.2 68.9 64% 86 29.8 0.0
29 22:15 S 8 10.00 Fair CLR 82.6 69.6 65% 86 29.8 0.0
29 21:55 S 7 10.00 Fair CLR 82.8 70 65% 87 29.8 0.0
29 21:35 S 6 10.00 Fair CLR 83.3 70.7 66% 88 29.8 0.0
29 21:15 S 5 10.00 Fair CLR 83.5 70.7 65% 88 29.79 0.0
29 20:55 S 7 10.00 Fair CLR 82.8 71.1 68% 87 29.78 0.0
29 20:35 SE 5 10.00 Fair CLR 82.6 71.6 70% 87 29.78 0.0
29 20:15 SE 5 10.00 Fair CLR 83.7 72.5 69% 90 29.77 0.0
29 19:55 SE 3 10.00 Fair CLR 84.4 73.4 70% 91 29.77 0.0
29 19:35 SE 5 10.00 Fair CLR 85.5 73.6 68% 93 29.77 0.0
29 19:15 SE 5 10.00 Fair CLR 86.4 73.2 65% 94 29.78 0.0
29 18:55 SE 3 10.00 Fair CLR 86.9 72.5 89.6 80.4 62% 94 29.79 0.0
29 18:35 SE 6 10.00 Fair CLR 87.6 72.3 61% 95 29.79 0.0
29 18:15 S 6 10.00 Fair CLR 88.2 70.9 57% 94 29.79 0.0
29 17:55 S 9 10.00 Fair CLR 89.6 69.8 52% 95 29.79 0.0
29 17:35 S 9 10.00 Fair CLR 89.1 69.6 53% 94 29.79 0.0
29 17:15 S 6 10.00 Fair CLR 88.3 68 51% 92 29.8 0.0
29 16:55 S 13 G 17 10.00 Fair CLR 88.9 66.9 48% 92 29.8 0.0
29 16:35 S 9 10.00 Fair CLR 89.1 68.7 51% 93 29.8 0.0
29 16:15 S 8 G 16 10.00 Fair CLR 87.8 67.8 52% 91 29.8 0.0
29 15:55 S 8 10.00 Fair CLR 86 69.1 57% 90 29.81 0.0
29 15:35 S 9 G 18 10.00 Fair CLR 85.1 66.9 55% 88 29.81 0.0
29 15:15 S 9 10.00 Fair CLR 82.8 67.5 60% 86 29.82 0.0
29 14:55 SE 10 10.00 Partly Cloudy SCT050 81.3 66 60% 83 29.83 0.0
29 14:35 S 9 10.00 Partly Cloudy SCT044 SCT060 81.3 64 56% 83 29.84 0.0
29 14:15 S 12 G 16 10.00 Fair CLR 82.4 64.2 54% 84 29.85 0.0
29 13:55 S 9 10.00 Fair CLR 82.2 62.4 51% 83 29.85 0.0
29 13:35 S 9 G 20 10.00 Fair CLR 83.8 63.5 50% 85 29.86 0.0
29 13:15 S 12 G 16 10.00 Fair CLR 82.8 63 51% 84 29.86 0.0
29 12:55 S 14 G 21 10.00 Fair CLR 83.5 61.5 84.2 69.6 48% 84 29.86 0.0
29 12:35 S 12 G 16 10.00 Fair CLR 81.1 61.9 52% 82 29.87 0.0
29 12:15 S 12 G 17 10.00 Fair CLR 80.6 61.5 52% 82 29.87 0.0
29 11:55 S 12 G 18 10.00 Fair CLR 81 60.6 50% 82 29.87 0.0
29 11:35 S 15 G 24 10.00 Fair CLR 80.6 59.5 49% 81 29.88 0.0
29 11:15 S 14 G 18 10.00 Fair CLR 81 59.9 49% 82 29.88 0.0
29 10:55 S 14 G 22 10.00 Fair CLR 79.7 59.4 50% 81 29.88 0.0
29 10:35 S 13 G 21 10.00 Fair CLR 79 58.8 50% 80 29.89 0.0
29 10:15 S 9 10.00 Fair CLR 77.9 59.2 53% 79 29.89 0.0
29 09:55 S 9 G 18 10.00 Fair CLR 76.1 58.8 55% 78 29.89 0.0
29 09:35 S 13 G 18 10.00 Fair CLR 75.4 58.6 56% 78 29.89 0.0
29 09:15 S 10 G 20 10.00 Fair CLR 74.5 58.5 58% 29.89 0.0
29 08:55 S 15 G 22 10.00 Fair CLR 73.4 58.1 59% 29.9 0.0
29 08:35 S 9 G 17 10.00 Fair CLR 72.5 57.7 60% 29.9 0.0
29 08:15 S 9 10.00 Fair CLR 71.4 57.9 63% 29.9 0.0
29 07:55 S 9 G 16 10.00 Fair CLR 70.9 57.9 64% 29.9 0.0
29 07:35 S 12 G 16 10.00 Fair CLR 70.3 57.7 64% 29.9 0.0
29 07:15 S 12 10.00 Fair CLR 69.8 58.3 67% 29.9 0.0
29 06:55 S 10 G 16 10.00 Fair CLR 69.8 58.5 73 69.8 67% 29.91 0.0
29 06:35 S 10 G 16 10.00 Fair CLR 70 58.6 67% 29.91 0.0
29 06:15 S 8 G 17 10.00 Fair CLR 70.3 58.5 66% 29.9 0.0
29 05:55 S 14 G 18 10.00 Partly Cloudy SCT120 70 59 68% 29.91 0.0
29 05:35 S 12 G 18 10.00 Mostly Cloudy BKN110 70.2 59.4 69% 29.92 0.0
29 05:15 S 9 G 20 10.00 Partly Cloudy SCT100 70.3 59.5 69% 29.94 0.0
29 04:55 S 12 G 17 10.00 Fair CLR 70.7 59.9 69% 29.94 0.0
29 04:35 S 10 G 21 10.00 Fair CLR 70.7 60.3 70% 29.93 0.0
29 04:15 S 12 G 20 10.00 Fair CLR 70.7 60.4 70% 29.94 0.0
29 03:55 S 16 G 20 10.00 Fair CLR 71.6 60.4 68% 29.94 0.0
29 03:35 S 14 G 18 10.00 Fair CLR 72 60.6 68% 29.95 0.0
29 03:15 S 12 G 20 10.00 Fair CLR 72.1 60.8 68% 29.95 0.0
29 02:55 SE 10 10.00 Fair CLR 72.3 61.2 68% 29.96 0.0
29 02:35 S 14 G 17 10.00 Fair CLR 72.3 61.3 69% 29.96 0.0
29 02:15 S 12 G 20 10.00 Fair CLR 72.5 61.7 69% 29.97 0.0
29 01:55 SE 15 G 20 10.00 Fair CLR 72.7 61.7 69% 29.97 0.0
29 01:35 SE 13 10.00 Fair CLR 72.7 62.1 69% 29.97 0.0
29 01:15 SE 14 10.00 Fair CLR 72.9 62.6 70% 29.97 0.0
29 00:55 SE 12 G 18 10.00 Fair CLR 72.9 62.8 82.4 72.9 71% 29.97 0.0
29 00:35 SE 12 G 16 10.00 Fair CLR 73.2 63.3 71% 29.99 0.0
29 00:15 SE 9 G 17 10.00 Fair CLR 73.4 63.5 71% 29.99 0.0
28 23:55 SE 12 10.00 Fair CLR 73.6 63.5 71% 29.99 0.0
28 23:35 SE 10 10.00 Fair CLR 73.9 63.7 70% 29.99 0.0
28 23:15 SE 10 10.00 Fair CLR 74.1 64.4 72% 30 0.0
28 22:55 SE 13 10.00 Fair CLR 74.7 64.6 71% 30 0.0
28 22:35 SE 13 G 18 10.00 Fair CLR 75.2 64.8 70% 77 29.99 0.0
28 22:15 SE 12 10.00 Fair CLR 75.4 65.3 71% 77 30 0.0
28 21:55 SE 10 10.00 Fair CLR 75.9 65.5 70% 78 30 0.0
28 21:35 SE 9 10.00 Fair CLR 76.1 66.2 72% 78 29.99 0.0
28 21:15 SE 8 10.00 Fair CLR 77 66.2 69% 79 29.99 0.0
28 20:55 SE 10 10.00 Fair CLR 77.2 66.9 71% 79 29.99 0.0
28 20:35 SE 8 10.00 Fair CLR 77.2 67.6 73% 79 29.99 0.0
28 20:15 SE 10 G 17 10.00 Fair CLR 78.4 67.3 69% 81 29.99 0.0
28 19:55 SE 10 10.00 Fair CLR 79.3 67.3 67% 82 29.99 0.0
28 19:35 SE 10 10.00 Fair CLR 80.6 67.1 64% 83 30 0.0
28 19:15 SE 10 10.00 Fair CLR 81.5 67.1 62% 84 30 0.0
28 18:55 SE 12 10.00 Fair CLR 82.4 66.9 84.6 81.3 60% 85 30.01 0.0
28 18:35 SE 10 G 17 10.00 Fair CLR 83.3 66.7 58% 86 30.01 0.0
28 18:15 SE 9 10.00 Fair CLR 83.5 66.6 57% 86 30.01 0.0
28 17:55 SE 13 G 17 10.00 Fair CLR 83.7 66 55% 86 30.02 0.0
28 17:35 SE 10 10.00 Fair CLR 84 66.2 55% 86 30.02 0.0
28 17:15 S 12 G 20 10.00 Fair CLR 83.8 65.3 54% 86 30.02 0.0
28 16:55 S 15 G 21 10.00 Fair CLR 84.6 65.7 53% 87 30.03 0.0
28 16:35 S 13 G 16 10.00 Fair CLR 83.8 64.9 53% 86 30.04 0.0
28 16:15 S 12 G 17 10.00 Fair CLR 84 64.9 53% 86 30.04 0.0
28 15:55 SE 12 G 17 10.00 Fair CLR 83.7 64.8 53% 85 30.05 0.0
28 15:35 S 12 G 16 10.00 Fair CLR 83.7 64.9 53% 85 30.06 0.0
28 15:15 S 14 10.00 Fair CLR 83.5 64.4 53% 85 30.07 0.0
28 14:55 SE 12 G 17 10.00 Fair CLR 83.5 65.3 54% 85 30.07 0.0
28 14:35 S 12 10.00 Fair CLR 82.8 64.2 54% 84 30.07 0.0
28 14:15 S 9 G 17 10.00 Fair CLR 82.4 64.4 55% 84 30.08 0.0
28 13:55 S 10 G 17 10.00 Fair CLR 82.6 64.9 55% 84 30.09 0.0
28 13:35 S 12 G 17 10.00 Fair CLR 82.4 64.6 55% 84 30.09 0.0
28 13:15 SE 14 G 17 10.00 Fair CLR 81.7 64 55% 83 30.1 0.0
28 12:55 S 10 10.00 Fair CLR 81.1 64.2 81.1 64.6 57% 83 30.11 0.0
28 12:35 S 13 G 17 10.00 Fair CLR 80.1 63.7 57% 82 30.12 0.0
28 12:15 E 12 10.00 Fair CLR 80.4 64.4 58% 82 30.13 0.0
28 11:55 S 8 10.00 Fair CLR 79 64.2 61% 81 30.14 0.0
28 11:35 S 12 G 16 10.00 Fair CLR 78.4 63.7 61% 80 30.15 0.0
28 11:15 S 10 10.00 Fair CLR 77.9 64 63% 80 30.14 0.0
28 10:55 S 10 G 16 10.00 Fair CLR 77 62.8 62% 79 30.14 0.0
28 10:35 S 8 10.00 Fair CLR 75.6 62.6 64% 78 30.15 0.0
28 10:15 S 9 10.00 Fair CLR 75.4 63.1 66% 77 30.15 0.0
28 09:55 SE 6 10.00 Fair CLR 74.1 63.3 69% 30.14 0.0
28 09:35 SE 5 10.00 Fair CLR 72.7 63.3 73% 30.14 0.0
28 09:15 SE 8 10.00 Fair CLR 70.9 62.6 75% 30.15 0.0
28 08:55 SE 7 10.00 Fair CLR 70.3 62.8 77% 30.15 0.0
28 08:35 SE 6 10.00 Fair CLR 69.1 62.6 80% 30.15 0.0
28 08:15 SE 7 10.00 Fair CLR 68 62.8 83% 30.15 0.0
28 07:55 SE 3 10.00 Fair CLR 66.6 62.4 87% 30.14 0.0
28 07:35 Calm 10.00 Fair CLR 65.1 62.1 90% 30.14 0.0
28 07:15 SE 6 10.00 Fair CLR 64.8 61.5 89% 30.13 0.0
28 06:55 SE 5 10.00 Fair CLR 65.3 61.5 68.9 64.6 88% 30.13 0.0 0.12
28 06:35 SE 5 10.00 Partly Cloudy SCT080 65.5 61.7 88% 30.13 0.0
28 06:15 SE 5 10.00 Mostly Cloudy SCT080 BKN085 65.3 61.7 88% 30.13 0.0
28 05:55 Calm 10.00 Mostly Cloudy BKN080 66 62.6 89% 30.13 0.0
28 05:35 Calm 10.00 Overcast OVC080 66.6 62.6 87% 30.13 0.0
28 05:15 Calm 10.00 Overcast OVC080 66.6 62.1 86% 30.12 0.0
Date Time (cdt) Wind (mph) Vis. (mi.) Weather Sky Cond. Air Dwpt Max. Min. Relative Humidity Wind Chill (°F) Heat Index (°F) altimeter (in) sea level (mb) 1 hr 3 hr 6 hr
6 hour
Temperature (ºF) Pressure Precipitation (in)